CYOY

C J.H.L.(Joe) Lecomte) Heliport

Valcartier, Quebec, Canada
METAR CYOY 190326Z AUTO 00000KT 1SM FEW021 OVC036 M12/M14 A2984 RMK VSBY VRBL 0.3V3.0
Observed Flight Rules
Jan-19 @ 03:26 UTC (24 minutes ago) Instrument Flight Rules
Wind Visibility Clouds
Calm 1 miles
  • Few at 2,100' AGL
  • Overcast at 3,600' AGL
Temperatures Readings
Current -12°C / 10°F
Dewpoint -14°C / 7°F
Humidity 85%
Altimeter 29.84" Hg
Pressure 1010 hPa
Elevation 168
METAR CYOY 190326Z AUTO 00000KT 1SM FEW021 OVC036 M12/M14 A2984 RMK VSBY VRBL 0.3V3.0
Observed Flight Rules
Jan-19 @ 03:26 UTC
(24 minutes ago)
IFR
Wind Visibility
Calm 1 miles
Clouds
  • Few at 2,100' AGL
  • Overcast at 3,600' AGL
Temperature Dewpoint
-12°C / 10°F -14°C / 7°F
Humidity Altimeter Pressure
85% 29.84" Hg 1010 hPa